createdAt,value
2019-02-06T00:01:36.759Z,36.87
2019-02-06T00:04:08.458Z,35.97
2019-02-06T00:06:40.213Z,44.03
2019-02-06T00:09:17.342Z,30.73
2019-02-06T00:11:49.079Z,35.03
2019-02-06T00:14:20.803Z,35.57
2019-02-06T00:16:52.639Z,35.67
2019-02-06T00:19:24.670Z,38.27
2019-02-06T00:21:56.399Z,38.23
2019-02-06T00:24:28.126Z,38.53
2019-02-06T00:26:59.817Z,35.57
2019-02-06T00:29:31.531Z,42.73
2019-02-06T00:32:04.588Z,38.30
2019-02-06T00:34:36.314Z,44.90
2019-02-06T00:37:08.036Z,50.17
2019-02-06T00:39:39.704Z,39.50
2019-02-06T00:42:11.358Z,49.97
2019-02-06T00:44:43.040Z,39.17
2019-02-06T00:47:14.863Z,45.43
2019-02-06T00:49:46.632Z,49.80
2019-02-06T00:52:18.391Z,51.07
2019-02-06T00:54:50.076Z,50.60
2019-02-06T00:57:21.902Z,48.27
2019-02-06T00:59:53.835Z,51.97
2019-02-06T01:02:25.710Z,48.50
2019-02-06T01:04:57.499Z,51.17
2019-02-06T01:07:29.251Z,54.33
2019-02-06T01:10:00.913Z,54.80
2019-02-06T01:12:32.659Z,53.13
2019-02-06T01:15:04.846Z,54.77
2019-02-06T01:17:36.734Z,54.57
2019-02-06T01:20:09.902Z,52.60
2019-02-06T01:22:41.862Z,67.13
2019-02-06T01:25:14.977Z,58.87
2019-02-06T01:27:46.891Z,61.67
2019-02-06T01:30:22.018Z,47.13
2019-02-06T01:32:53.761Z,65.67
2019-02-06T01:35:25.422Z,53.30
2019-02-06T01:37:57.091Z,60.87
2019-02-06T01:40:28.755Z,57.73
2019-02-06T01:43:00.524Z,57.17
2019-02-06T01:45:32.242Z,54.83
2019-02-06T01:48:04.186Z,51.40
2019-02-06T01:50:36.009Z,50.73
2019-02-06T01:53:07.744Z,52.07
2019-02-06T01:55:39.404Z,54.30
2019-02-06T01:58:11.098Z,56.07
2019-02-06T02:00:43.103Z,51.53
2019-02-06T02:03:14.854Z,51.20
2019-02-06T02:05:46.534Z,49.20
2019-02-06T02:08:18.216Z,50.17
2019-02-06T02:10:50.210Z,48.83
2019-02-06T02:13:22.182Z,53.40
2019-02-06T02:15:53.868Z,50.07
2019-02-06T02:18:25.533Z,47.20
2019-02-06T02:20:57.312Z,51.20
2019-02-06T02:23:29.043Z,53.97
2019-02-06T02:26:00.970Z,55.90
2019-02-06T02:28:32.822Z,49.10
2019-02-06T02:31:04.660Z,52.30
2019-02-06T02:33:36.467Z,53.90
2019-02-06T02:36:16.125Z,47.13
2019-02-06T02:38:41.559Z,57.13
2019-02-06T02:41:13.208Z,44.37
2019-02-06T02:43:44.862Z,49.90
2019-02-06T02:46:16.576Z,48.33
2019-02-06T02:48:48.319Z,50.00
2019-02-06T02:51:19.993Z,44.67
2019-02-06T02:53:51.744Z,47.17
2019-02-06T02:56:23.485Z,46.03
2019-02-06T02:58:55.221Z,42.17
2019-02-06T03:01:39.761Z,45.67
2019-02-06T03:04:19.959Z,34.43
2019-02-06T03:06:51.659Z,38.27
2019-02-06T03:09:23.289Z,39.07
2019-02-06T03:11:55.616Z,37.37
2019-02-06T03:14:27.298Z,33.60
2019-02-06T03:16:58.937Z,33.90
2019-02-06T03:19:30.613Z,33.53
2019-02-06T03:22:02.261Z,27.50
2019-02-06T03:24:34.208Z,31.70
2019-02-06T03:27:05.957Z,37.60
2019-02-06T03:29:37.717Z,27.40
2019-02-06T03:32:09.449Z,33.90
2019-02-06T03:34:41.107Z,26.83
2019-02-06T03:37:13.124Z,34.00
2019-02-06T03:39:44.860Z,29.90
2019-02-06T03:42:16.544Z,32.03
2019-02-06T03:44:48.195Z,25.63
2019-02-06T03:47:19.836Z,26.27
2019-02-06T03:49:51.521Z,31.13
2019-02-06T03:52:23.236Z,31.40
2019-02-06T03:54:55.023Z,29.33
2019-02-06T03:57:26.799Z,28.67
2019-02-06T03:59:58.529Z,24.23
2019-02-06T04:02:30.247Z,32.17
2019-02-06T04:05:02.038Z,19.77
2019-02-06T04:07:33.674Z,24.70
2019-02-06T04:10:06.689Z,29.27
2019-02-06T04:12:38.437Z,26.30
2019-02-06T04:15:10.704Z,22.43
2019-02-06T04:17:42.471Z,24.27
2019-02-06T04:20:14.478Z,24.93
2019-02-06T04:22:46.208Z,20.07
2019-02-06T04:25:17.879Z,25.47
2019-02-06T04:27:49.635Z,25.47
2019-02-06T04:30:21.311Z,22.37
2019-02-06T04:32:53.058Z,33.97
2019-02-06T04:35:24.866Z,23.93
2019-02-06T04:37:56.675Z,26.00
2019-02-06T04:40:28.449Z,28.77
2019-02-06T04:43:00.113Z,27.67
2019-02-06T04:45:31.793Z,25.87
2019-02-06T04:48:03.462Z,26.30
2019-02-06T04:50:35.165Z,24.47
2019-02-06T04:53:06.863Z,25.03
2019-02-06T04:55:38.535Z,31.83
2019-02-06T04:58:10.268Z,26.90
2019-02-06T05:00:41.940Z,30.07
2019-02-06T05:03:13.677Z,24.90
2019-02-06T05:05:45.415Z,24.23
2019-02-06T05:08:17.083Z,26.97
2019-02-06T05:10:48.825Z,30.77
2019-02-06T05:13:20.519Z,32.27
2019-02-06T05:15:52.165Z,28.73
2019-02-06T05:18:23.821Z,26.43
2019-02-06T05:20:58.183Z,26.57
2019-02-06T05:23:29.845Z,27.70
2019-02-06T05:26:01.595Z,27.67
2019-02-06T05:28:33.308Z,29.03
2019-02-06T05:31:05.146Z,26.70
2019-02-06T05:33:37.088Z,26.93
2019-02-06T05:36:08.807Z,22.20
2019-02-06T05:38:40.488Z,21.43
2019-02-06T05:41:12.195Z,25.93
2019-02-06T05:43:43.964Z,27.87
2019-02-06T05:46:16.019Z,28.53
2019-02-06T05:48:49.404Z,25.10
2019-02-06T05:51:21.095Z,24.33
2019-02-06T05:53:52.796Z,29.23
2019-02-06T05:56:25.772Z,29.83
2019-02-06T05:58:57.934Z,29.67
2019-02-06T06:01:29.695Z,32.57
2019-02-06T06:04:01.385Z,31.77
2019-02-06T06:06:33.097Z,30.03
2019-02-06T06:09:07.976Z,36.57
2019-02-06T06:11:40.004Z,35.83
2019-02-06T06:14:11.750Z,33.03
2019-02-06T06:16:43.438Z,33.00
2019-02-06T06:19:15.117Z,42.13
2019-02-06T06:21:46.787Z,35.10
2019-02-06T06:24:18.708Z,37.00
2019-02-06T06:26:50.349Z,34.57
2019-02-06T06:29:22.023Z,34.67
2019-02-06T06:31:53.781Z,34.23
2019-02-06T06:34:25.529Z,30.13
2019-02-06T06:36:57.431Z,32.33
2019-02-06T06:39:29.118Z,36.77
2019-02-06T06:42:00.869Z,28.60
2019-02-06T06:44:32.561Z,40.00
2019-02-06T06:47:04.245Z,35.70
2019-02-06T06:49:35.973Z,34.83
2019-02-06T06:52:07.652Z,37.50
2019-02-06T06:54:39.389Z,37.67
2019-02-06T06:57:12.416Z,38.23
2019-02-06T06:59:44.340Z,35.90
2019-02-06T07:02:19.556Z,36.47
2019-02-06T07:04:51.242Z,35.27
2019-02-06T07:07:22.932Z,34.30
2019-02-06T07:09:54.797Z,30.43
2019-02-06T07:12:26.618Z,27.87
2019-02-06T07:14:58.742Z,30.57
2019-02-06T07:17:30.516Z,37.13
2019-02-06T07:20:02.236Z,39.20
2019-02-06T07:22:33.938Z,38.73
2019-02-06T07:25:06.546Z,32.77
2019-02-06T07:27:38.616Z,37.30
2019-02-06T07:30:15.068Z,33.60
2019-02-06T07:32:47.436Z,36.77
2019-02-06T07:35:19.605Z,39.33
2019-02-06T07:37:51.310Z,40.33
2019-02-06T07:40:23.360Z,39.17
2019-02-06T07:42:55.035Z,36.80
2019-02-06T07:45:26.773Z,37.13
2019-02-06T07:47:58.443Z,31.40
2019-02-06T07:50:31.805Z,45.40
2019-02-06T07:53:03.567Z,46.03
2019-02-06T07:55:35.267Z,45.97
2019-02-06T07:58:07.007Z,47.53
2019-02-06T08:00:38.788Z,44.03
2019-02-06T08:03:10.461Z,38.60
2019-02-06T08:05:42.441Z,44.67
2019-02-06T08:08:14.218Z,48.33
2019-02-06T08:10:46.073Z,43.10
2019-02-06T08:13:17.789Z,42.43
2019-02-06T08:15:49.506Z,45.83
2019-02-06T08:18:21.455Z,47.07
2019-02-06T08:20:53.226Z,51.00
2019-02-06T08:23:25.077Z,47.27
2019-02-06T08:25:56.839Z,39.80
2019-02-06T08:28:28.517Z,47.63
2019-02-06T08:31:00.574Z,47.87
2019-02-06T08:33:32.262Z,44.63
2019-02-06T08:36:04.141Z,45.20
2019-02-06T08:38:47.068Z,48.07
2019-02-06T08:41:09.309Z,42.70
2019-02-06T08:43:41.311Z,45.40
2019-02-06T08:46:13.039Z,46.13
2019-02-06T08:48:44.794Z,45.47
2019-02-06T08:51:16.436Z,40.30
2019-02-06T08:53:48.114Z,44.17
2019-02-06T08:56:20.030Z,38.47
2019-02-06T08:58:51.706Z,36.97
2019-02-06T09:01:23.368Z,42.20
2019-02-06T09:03:55.055Z,38.20
2019-02-06T09:06:26.782Z,42.20
2019-02-06T09:08:59.980Z,40.07
2019-02-06T09:11:31.958Z,39.93
2019-02-06T09:14:04.288Z,33.20
2019-02-06T09:16:36.099Z,33.70
2019-02-06T09:19:07.814Z,40.60
2019-02-06T09:21:39.684Z,38.50
2019-02-06T09:24:11.346Z,35.27
2019-02-06T09:26:43.040Z,35.60
2019-02-06T09:29:14.771Z,37.33
2019-02-06T09:31:46.612Z,31.37
2019-02-06T09:34:18.782Z,34.27
2019-02-06T09:36:50.462Z,27.50
2019-02-06T09:39:22.131Z,32.07
2019-02-06T09:41:53.875Z,37.30
2019-02-06T09:44:25.545Z,30.33
2019-02-06T09:46:57.663Z,29.60
2019-02-06T09:49:29.334Z,32.10
2019-02-06T09:52:01.101Z,33.57
2019-02-06T09:54:32.884Z,31.53
2019-02-06T09:57:04.643Z,31.60
2019-02-06T09:59:36.710Z,30.87
2019-02-06T10:02:09.516Z,27.53
2019-02-06T10:04:41.834Z,30.67
2019-02-06T10:07:13.623Z,32.93
2019-02-06T10:09:45.285Z,26.23
2019-02-06T10:12:17.777Z,26.43
2019-02-06T10:14:49.469Z,31.43
2019-02-06T10:17:21.216Z,21.57
2019-02-06T10:19:52.965Z,24.10
2019-02-06T10:22:24.635Z,28.77
2019-02-06T10:24:56.800Z,23.77
2019-02-06T10:27:28.532Z,23.70
2019-02-06T10:30:00.373Z,24.37
2019-02-06T10:32:32.222Z,27.03
2019-02-06T10:35:04.365Z,30.40
2019-02-06T10:37:36.399Z,25.80
2019-02-06T10:40:08.726Z,27.23
2019-02-06T10:42:40.460Z,28.93
2019-02-06T10:45:12.451Z,28.00
2019-02-06T10:47:44.187Z,26.07
2019-02-06T10:50:18.602Z,26.60
2019-02-06T10:52:50.300Z,29.33
2019-02-06T10:55:22.126Z,28.37
2019-02-06T10:57:53.977Z,29.30
2019-02-06T11:00:31.719Z,28.33
2019-02-06T11:03:05.087Z,28.30
2019-02-06T11:05:36.760Z,27.57
2019-02-06T11:08:08.611Z,29.77
2019-02-06T11:10:40.276Z,30.00
2019-02-06T11:13:12.018Z,27.40
2019-02-06T11:15:43.780Z,28.57
2019-02-06T11:18:15.538Z,26.13
2019-02-06T11:20:47.408Z,26.37
2019-02-06T11:23:19.100Z,29.03
2019-02-06T11:25:50.878Z,29.30
2019-02-06T11:28:22.646Z,29.67
2019-02-06T11:30:57.128Z,24.57
2019-02-06T11:33:27.818Z,26.63
2019-02-06T11:35:59.551Z,26.17
2019-02-06T11:38:31.312Z,28.03
2019-02-06T11:41:03.004Z,23.97
2019-02-06T11:43:34.697Z,25.47
2019-02-06T11:46:09.044Z,24.07
2019-02-06T11:48:39.800Z,24.87
2019-02-06T11:51:11.449Z,23.47
2019-02-06T11:53:43.132Z,29.27
2019-02-06T11:56:14.872Z,27.67
2019-02-06T11:58:46.525Z,26.93
2019-02-06T12:01:25.238Z,26.47
2019-02-06T12:03:57.268Z,25.00
2019-02-06T12:06:29.055Z,28.93
2019-02-06T12:09:00.707Z,28.23
2019-02-06T12:11:32.401Z,27.53
2019-02-06T12:14:04.545Z,29.37
2019-02-06T12:16:36.716Z,33.27
2019-02-06T12:19:08.483Z,30.03
2019-02-06T12:21:40.191Z,30.20
2019-02-06T12:24:12.017Z,28.23
2019-02-06T12:26:43.779Z,31.47
2019-02-06T12:29:15.911Z,30.27
2019-02-06T12:31:47.643Z,31.10
2019-02-06T12:34:19.336Z,32.00
2019-02-06T12:36:50.995Z,28.30
2019-02-06T12:39:22.847Z,33.10
2019-02-06T12:41:54.613Z,25.50
2019-02-06T12:44:26.562Z,27.27
2019-02-06T12:46:58.252Z,28.20
2019-02-06T12:49:30.008Z,21.00
2019-02-06T12:52:01.658Z,24.40
2019-02-06T12:54:33.331Z,27.07
2019-02-06T12:57:05.200Z,28.30
2019-02-06T12:59:36.871Z,25.17
2019-02-06T13:02:08.544Z,29.43
2019-02-06T13:04:40.220Z,29.73
2019-02-06T13:07:11.885Z,28.40
2019-02-06T13:09:43.544Z,25.90
2019-02-06T13:12:15.288Z,30.20
2019-02-06T13:14:46.940Z,22.90
2019-02-06T13:17:18.620Z,28.80
2019-02-06T13:19:50.297Z,25.23
2019-02-06T13:22:21.995Z,21.67
2019-02-06T13:24:53.717Z,24.87
2019-02-06T13:27:25.389Z,21.17
2019-02-06T13:29:57.088Z,23.30
2019-02-06T13:32:28.910Z,22.67
2019-02-06T13:35:00.615Z,21.40
2019-02-06T13:37:32.696Z,24.73
2019-02-06T13:40:05.679Z,19.37
2019-02-06T13:42:37.403Z,26.57
2019-02-06T13:45:11.894Z,26.17
2019-02-06T13:47:43.604Z,22.73
2019-02-06T13:50:22.190Z,22.90
2019-02-06T13:52:49.342Z,24.70
2019-02-06T13:55:21.291Z,26.70
2019-02-06T13:57:53.033Z,28.63
2019-02-06T14:00:30.673Z,25.00
2019-02-06T14:03:02.524Z,29.43
2019-02-06T14:05:34.594Z,24.70
2019-02-06T14:08:14.780Z,27.17
2019-02-06T14:10:59.877Z,21.77
2019-02-06T14:13:20.623Z,23.90
2019-02-06T14:15:52.445Z,20.40
2019-02-06T14:18:24.204Z,20.87
2019-02-06T14:20:55.874Z,20.03
2019-02-06T14:23:34.951Z,23.07
2019-02-06T14:26:53.224Z,24.37
2019-02-06T14:30:12.008Z,28.17
2019-02-06T14:33:28.766Z,21.00
2019-02-06T14:36:28.470Z,18.70
2019-02-06T14:39:25.472Z,25.17
2019-02-06T14:42:40.456Z,23.00
2019-02-06T14:45:42.691Z,18.83
2019-02-06T14:48:30.537Z,21.17
2019-02-06T14:51:47.269Z,18.30
2019-02-06T14:54:46.679Z,19.90
2019-02-06T14:57:28.243Z,22.67
2019-02-06T15:00:13.788Z,24.83
2019-02-06T15:03:14.459Z,22.23
2019-02-06T15:06:32.869Z,24.40
2019-02-06T15:09:47.542Z,21.93
2019-02-06T15:12:44.617Z,21.73
2019-02-06T15:15:59.184Z,21.77
2019-02-06T15:19:02.687Z,19.67
2019-02-06T15:21:46.395Z,25.07
2019-02-06T15:24:53.990Z,22.47
2019-02-06T15:28:15.697Z,23.17
2019-02-06T15:31:30.985Z,20.40
2019-02-06T15:34:46.983Z,20.87
2019-02-06T15:37:59.627Z,20.97
2019-02-06T15:40:44.321Z,20.43
2019-02-06T15:43:45.535Z,17.27
2019-02-06T15:46:26.637Z,20.03
2019-02-06T15:49:36.527Z,18.37
2019-02-06T15:52:58.557Z,19.33
2019-02-06T15:55:44.033Z,18.43
2019-02-06T15:59:00.306Z,20.10
2019-02-06T16:02:21.196Z,17.73
2019-02-06T16:05:42.599Z,19.40
2019-02-06T16:08:42.853Z,14.97
2019-02-06T16:11:44.174Z,20.67
2019-02-06T16:14:50.386Z,21.80
2019-02-06T16:18:12.443Z,18.60
2019-02-06T16:21:53.234Z,18.97
2019-02-06T16:24:47.307Z,19.93
2019-02-06T16:27:58.451Z,23.47
2019-02-06T16:30:52.844Z,27.17
2019-02-06T16:34:17.927Z,22.53
2019-02-06T16:37:00.781Z,22.70
2019-02-06T16:40:08.030Z,20.37
2019-02-06T16:43:15.236Z,22.70
2019-02-06T16:46:26.264Z,22.20
2019-02-06T16:49:26.192Z,30.73
2019-02-06T16:52:31.511Z,25.53
2019-02-06T16:55:32.348Z,28.97
2019-02-06T16:58:42.199Z,24.37
2019-02-06T17:01:46.235Z,23.97
2019-02-06T17:04:30.592Z,24.97
2019-02-06T17:07:09.963Z,27.20
2019-02-06T17:10:06.525Z,23.17
2019-02-06T17:13:00.121Z,26.27
2019-02-06T17:15:58.601Z,24.80
2019-02-06T17:19:20.440Z,25.63
2019-02-06T17:22:57.880Z,26.43
2019-02-06T17:26:10.547Z,24.93
2019-02-06T17:29:19.547Z,28.60
2019-02-06T17:32:32.265Z,28.00
2019-02-06T17:35:33.105Z,26.50
2019-02-06T17:38:27.001Z,28.97
2019-02-06T17:41:50.942Z,34.13
2019-02-06T17:45:00.587Z,31.03
2019-02-06T17:48:23.924Z,31.03
2019-02-06T17:51:40.043Z,26.90
2019-02-06T17:54:56.168Z,32.47
2019-02-06T17:57:27.868Z,31.20
2019-02-06T17:59:59.598Z,31.67
2019-02-06T18:02:31.386Z,27.57
2019-02-06T18:05:03.104Z,27.27
2019-02-06T18:07:34.805Z,32.43
2019-02-06T18:10:11.325Z,31.43
2019-02-06T18:12:43.313Z,33.27
2019-02-06T18:15:15.159Z,34.27
2019-02-06T18:17:46.832Z,36.40
2019-02-06T18:20:18.947Z,33.27
2019-02-06T18:22:50.690Z,34.07
2019-02-06T18:25:22.864Z,31.30
2019-02-06T18:27:54.631Z,38.13
2019-02-06T18:30:27.949Z,32.07
2019-02-06T18:33:00.220Z,28.93
2019-02-06T18:35:31.956Z,36.93
2019-02-06T18:38:03.823Z,34.83
2019-02-06T18:40:35.578Z,32.30
2019-02-06T18:43:07.411Z,30.10
2019-02-06T18:45:39.095Z,38.43
2019-02-06T18:48:12.229Z,28.90
2019-02-06T18:50:43.999Z,41.40
2019-02-06T18:53:15.848Z,34.77
2019-02-06T18:55:47.587Z,38.73
2019-02-06T18:58:19.344Z,33.30
2019-02-06T19:00:51.315Z,31.80
2019-02-06T19:03:29.193Z,33.83
2019-02-06T19:06:00.926Z,32.20
2019-02-06T19:08:33.094Z,34.37
2019-02-06T19:11:05.237Z,30.87
2019-02-06T19:13:37.067Z,37.10
2019-02-06T19:16:08.827Z,33.03
2019-02-06T19:18:40.651Z,42.23
2019-02-06T19:21:12.517Z,36.33
2019-02-06T19:23:44.275Z,34.47
2019-02-06T19:26:16.071Z,42.27
2019-02-06T19:28:47.929Z,35.10
2019-02-06T19:31:19.721Z,34.10
2019-02-06T19:33:51.499Z,39.23
2019-02-06T19:36:23.568Z,30.23
2019-02-06T19:38:55.336Z,35.77
2019-02-06T19:41:27.132Z,34.03
2019-02-06T19:43:58.976Z,34.20
2019-02-06T19:46:30.853Z,41.30
2019-02-06T19:49:02.668Z,34.63
2019-02-06T19:51:34.429Z,37.70
2019-02-06T19:54:06.302Z,34.70
2019-02-06T19:56:38.074Z,36.47
2019-02-06T19:59:09.845Z,36.60
2019-02-06T20:01:41.678Z,36.90
2019-02-06T20:04:13.420Z,39.03
2019-02-06T20:06:45.242Z,33.87
2019-02-06T20:09:16.994Z,38.87
2019-02-06T20:11:48.758Z,34.10
2019-02-06T20:14:20.543Z,37.67
2019-02-06T20:16:52.334Z,33.13
2019-02-06T20:19:24.497Z,32.80
2019-02-06T20:21:56.237Z,31.97
2019-02-06T20:24:28.035Z,39.30
2019-02-06T20:26:59.775Z,35.03
2019-02-06T20:29:31.519Z,33.33
2019-02-06T20:32:03.371Z,31.10
2019-02-06T20:34:35.022Z,39.27
2019-02-06T20:37:06.795Z,34.40
2019-02-06T20:39:38.644Z,30.63
2019-02-06T20:42:10.483Z,35.97
2019-02-06T20:44:42.264Z,35.20
2019-02-06T20:47:14.336Z,31.20
2019-02-06T20:49:46.060Z,28.50
2019-02-06T20:52:17.752Z,27.27
2019-02-06T20:54:49.484Z,34.30
2019-02-06T20:57:21.228Z,27.93
2019-02-06T20:59:52.958Z,35.50
2019-02-06T21:02:24.731Z,27.93
2019-02-06T21:04:56.553Z,29.10
2019-02-06T21:07:28.310Z,25.57
2019-02-06T21:10:00.042Z,27.80
2019-02-06T21:12:31.825Z,24.77
2019-02-06T21:15:03.622Z,29.20
2019-02-06T21:17:35.463Z,30.10
2019-02-06T21:20:09.844Z,25.10
2019-02-06T21:22:41.607Z,27.73
2019-02-06T21:25:14.693Z,28.27
2019-02-06T21:27:46.786Z,29.17
2019-02-06T21:30:23.981Z,27.67
2019-02-06T21:32:55.814Z,29.70
2019-02-06T21:35:27.736Z,23.70
2019-02-06T21:37:59.906Z,26.00
2019-02-06T21:40:33.364Z,30.53
2019-02-06T21:43:05.646Z,25.00
2019-02-06T21:45:37.390Z,21.57
2019-02-06T21:48:09.189Z,24.27
2019-02-06T21:50:41.232Z,22.17
2019-02-06T21:53:12.937Z,25.77
2019-02-06T21:55:44.690Z,20.17
2019-02-06T21:58:16.351Z,20.70
2019-02-06T22:00:48.086Z,16.30
2019-02-06T22:03:20.120Z,22.17
2019-02-06T22:05:51.969Z,17.33
2019-02-06T22:08:23.719Z,16.20
2019-02-06T22:10:55.481Z,20.13
2019-02-06T22:13:27.244Z,20.63
2019-02-06T22:15:58.991Z,14.87
2019-02-06T22:18:30.674Z,17.37
2019-02-06T22:21:02.406Z,16.67
2019-02-06T22:23:34.086Z,16.77
2019-02-06T22:26:05.769Z,15.60
2019-02-06T22:28:37.543Z,14.27
2019-02-06T22:31:09.296Z,13.67
2019-02-06T22:33:41.035Z,16.77
2019-02-06T22:36:12.797Z,15.57
2019-02-06T22:38:44.547Z,17.30
2019-02-06T22:41:16.392Z,16.07
2019-02-06T22:43:48.127Z,14.70
2019-02-06T22:46:19.895Z,16.13
2019-02-06T22:48:51.676Z,13.63
2019-02-06T22:51:23.491Z,14.53
2019-02-06T22:53:55.261Z,15.77
2019-02-06T22:56:26.993Z,17.07
2019-02-06T22:58:58.706Z,14.77
2019-02-06T23:01:38.920Z,12.43
2019-02-06T23:04:10.896Z,14.20
2019-02-06T23:06:42.784Z,12.70
2019-02-06T23:09:14.660Z,14.27
2019-02-06T23:11:46.386Z,13.10
2019-02-06T23:14:19.819Z,13.90
2019-02-06T23:16:51.720Z,12.83
2019-02-06T23:19:23.486Z,12.43
2019-02-06T23:21:55.129Z,14.30
2019-02-06T23:24:26.798Z,14.23
2019-02-06T23:26:58.490Z,10.33
2019-02-06T23:29:30.328Z,12.00
2019-02-06T23:32:02.038Z,12.47
2019-02-06T23:34:33.762Z,13.10
2019-02-06T23:37:05.418Z,11.97
2019-02-06T23:39:37.070Z,13.37
2019-02-06T23:42:08.832Z,12.57
2019-02-06T23:44:40.550Z,13.70
2019-02-06T23:47:12.286Z,11.67
2019-02-06T23:49:43.939Z,12.97
2019-02-06T23:52:15.612Z,13.27
2019-02-06T23:54:47.288Z,13.43
2019-02-06T23:57:18.977Z,13.10
2019-02-06T23:59:50.708Z,12.97
